Kihei, HI

7:29 PM HST on September 14, 2014 (GMT -1000)
Kahului | Change Station
CLOSE
Current Station
Airport
Location: Kahului,
Elevation: 49 ft
Nearby Weather Stations
Active Advisory: High Surf Advisory Active Notice: Record Report

Elev 49 ft 20.90 °N, 156.43 °W | Updated 35 minutes ago

Partly Cloudy
Partly Cloudy
80 °F
Feels Like 83 °F
N
5
Wind Variable Wind from NNE

Today
High -- | Low -- °F
--% Chance of Precip.
Yesterday
High -- | Low -- °F
Precip. -- in
6:12 AM 6:29 PM
Waning Gibbous, 59% visible
Pressure 29.93 in
Visibility 10.0 miles
Clouds Few 5000 ft
Heat Index 83 °F
Dew Point 69 °F
Humidity 69%
Rainfall 0.00 in
Snow Depth Not available.
UV 0 out of 12
Pollen Not available.
Air Quality Not available.
Flu Activity Not available.
METAR PHOG 150454Z 02004KT 10SM FEW050 27/21 A2991 RMK AO2 SLP134 T02670206 $

More Conditions Fewer Conditions

Pressure 29.93 in
Visibility 10.0 miles
Clouds Few 5000 ft
Heat Index 83 °F
Dew Point 69 °F
Humidity 69%
Rainfall 0.00 in
Snow Depth Not available.
UV 0 out of 12
Pollen Not available.
Air Quality Not available.
Flu Activity Not available.
METAR PHOG 150454Z 02004KT 10SM FEW050 27/21 A2991 RMK AO2 SLP134 T02670206 $

More Conditions Fewer Conditions

10-Day Weather Forecast

Almanac

Astronomy

Sep. 14, 2014 Rise Set
Actual Time 6:12 AM HST 6:29 PM HST
Civil Twilight 5:50 AM HST 6:51 PM HST
Nautical Twilight 5:24 AM HST 7:17 PM HST
Astronomical Twilight 4:58 AM HST 7:43 PM HST
Moon 11:14 PM HST (9/14) 11:46 AM HST (9/14)
Length of Visible Light 13h 00m
Length of Day
12h 16m
Tomorrow will be 1m 10s shorter.
Waning Gibbous, 59% of the Moon is Illuminated
Sep 15
Waning Gibbous
Sep 15
Last Quarter
Sep 24
New
Oct 1
First Quarter
Oct 8
Full

Yesterday's Extremes

State Highs State Lows

Community

WunderPhotos

Upload Photos

1,753,414 photos uploaded!

Nearby

Snow Depth

Station Depth Elevation
No new snow has been reported.

Earthquake Activity

City Distance Mag. Time & Date
No recent earthquake activity has been reported nearby.
Minimum magnitude displayed is 2.5.

Coastal Water Temperatures

Place Temperature
No Stations Reporting

Nearby Weather Stations